createdAt,value
2022-12-05T00:01:29.697Z,9.77
2022-12-05T00:03:59.187Z,12.25
2022-12-05T00:06:28.155Z,9.68
2022-12-05T00:08:55.284Z,10.93
2022-12-05T00:11:25.385Z,8.52
2022-12-05T00:13:54.026Z,9.45
2022-12-05T00:16:24.291Z,13.30
2022-12-05T00:18:51.887Z,12.50
2022-12-05T00:21:22.617Z,9.35
2022-12-05T00:23:51.236Z,8.32
2022-12-05T00:26:18.731Z,10.75
2022-12-05T00:28:45.632Z,11.75
2022-12-05T00:31:16.374Z,12.60
2022-12-05T00:33:43.841Z,11.02
2022-12-05T00:36:13.735Z,9.75
2022-12-05T00:38:42.219Z,12.40
2022-12-05T00:41:15.507Z,11.43
2022-12-05T00:43:42.990Z,10.40
2022-12-05T00:46:12.960Z,12.77
2022-12-05T00:48:41.127Z,10.10
2022-12-05T00:51:14.169Z,11.07
2022-12-05T00:53:42.153Z,12.93
2022-12-05T00:56:15.746Z,9.45
2022-12-05T00:58:43.510Z,10.10
2022-12-05T01:01:15.955Z,11.68
2022-12-05T01:03:43.909Z,10.77
2022-12-05T01:06:11.834Z,10.40
2022-12-05T01:08:39.310Z,11.00
2022-12-05T01:11:07.886Z,10.85
2022-12-05T01:13:35.470Z,12.60
2022-12-05T01:16:02.831Z,11.40
2022-12-05T01:18:30.240Z,10.35
2022-12-05T01:20:57.501Z,10.75
2022-12-05T01:23:24.784Z,13.05
2022-12-05T01:25:53.277Z,12.05
2022-12-05T01:28:21.028Z,13.02
2022-12-05T01:30:49.946Z,13.45
2022-12-05T01:33:18.213Z,11.10
2022-12-05T01:35:45.371Z,12.90
2022-12-05T01:38:13.829Z,13.48
2022-12-05T01:40:44.447Z,12.80
2022-12-05T01:43:16.432Z,11.00
2022-12-05T01:45:45.759Z,12.63
2022-12-05T01:48:18.250Z,11.05
2022-12-05T01:50:46.390Z,13.20
2022-12-05T01:53:13.980Z,11.98
2022-12-05T01:55:41.138Z,12.65
2022-12-05T01:58:10.282Z,12.68
2022-12-05T02:00:41.663Z,10.35
2022-12-05T02:03:12.826Z,12.45
2022-12-05T02:05:39.773Z,13.65
2022-12-05T02:08:10.947Z,12.52
2022-12-05T02:10:45.483Z,13.82
2022-12-05T02:13:28.371Z,14.77
2022-12-05T02:16:32.605Z,12.43
2022-12-05T02:19:40.011Z,12.70
2022-12-05T02:22:28.148Z,13.18
2022-12-05T02:25:17.351Z,11.38
2022-12-05T02:28:09.645Z,11.80
2022-12-05T02:30:45.353Z,11.15
2022-12-05T02:33:46.308Z,11.80
2022-12-05T02:36:30.668Z,11.23
2022-12-05T02:39:17.354Z,11.18
2022-12-05T02:41:54.505Z,12.35
2022-12-05T02:44:47.842Z,14.43
2022-12-05T02:47:20.002Z,12.23
2022-12-05T02:49:49.963Z,11.73
2022-12-05T02:52:18.078Z,12.93
2022-12-05T02:54:48.339Z,12.80
2022-12-05T02:57:16.918Z,11.73
2022-12-05T02:59:43.876Z,12.68
2022-12-05T03:02:27.305Z,13.80
2022-12-05T03:04:58.509Z,11.15
2022-12-05T03:07:28.254Z,12.35
2022-12-05T03:10:01.707Z,12.52
2022-12-05T03:12:38.543Z,9.32
2022-12-05T03:15:08.858Z,11.43
2022-12-05T03:17:52.784Z,12.23
2022-12-05T03:20:27.543Z,13.88
2022-12-05T03:23:03.095Z,11.25
2022-12-05T03:26:01.171Z,11.45
2022-12-05T03:28:37.641Z,12.63
2022-12-05T03:31:11.145Z,9.90
2022-12-05T03:33:45.143Z,11.93
2022-12-05T03:36:14.771Z,10.23
2022-12-05T03:38:56.865Z,11.20
2022-12-05T03:41:38.614Z,10.05
2022-12-05T03:44:18.117Z,12.48
2022-12-05T03:46:53.259Z,12.80
2022-12-05T03:49:37.349Z,10.20
2022-12-05T03:52:15.302Z,9.70
2022-12-05T03:54:55.210Z,10.82
2022-12-05T03:57:30.287Z,10.07
2022-12-05T04:00:09.776Z,11.43
2022-12-05T04:02:45.204Z,11.05
2022-12-05T04:05:30.483Z,10.88
2022-12-05T04:08:07.466Z,11.63
2022-12-05T04:10:48.660Z,12.00
2022-12-05T04:13:27.049Z,9.73
2022-12-05T04:16:18.737Z,10.50
2022-12-05T04:19:00.884Z,10.98
2022-12-05T04:24:29.496Z,10.40
2022-12-05T04:27:23.110Z,11.90
2022-12-05T04:30:22.651Z,11.25
2022-12-05T04:33:02.186Z,12.38
2022-12-05T04:35:35.752Z,11.27
2022-12-05T04:38:09.059Z,10.93
2022-12-05T04:40:48.904Z,11.15
2022-12-05T04:43:17.688Z,10.07
2022-12-05T04:45:45.318Z,14.32
2022-12-05T04:48:15.505Z,9.70
2022-12-05T04:50:45.551Z,10.50
2022-12-05T04:53:14.532Z,12.40
2022-12-05T04:55:46.990Z,9.55
2022-12-05T04:58:21.019Z,10.98
2022-12-05T05:01:14.680Z,11.15
2022-12-05T05:03:55.726Z,10.50
2022-12-05T05:06:22.642Z,9.65
2022-12-05T05:08:58.966Z,9.52
2022-12-05T05:11:29.363Z,9.48
2022-12-05T05:13:56.279Z,10.40
2022-12-05T05:16:33.651Z,9.20
2022-12-05T05:19:00.893Z,9.82
2022-12-05T05:21:28.790Z,11.00
2022-12-05T05:23:56.536Z,10.43
2022-12-05T05:26:24.303Z,9.40
2022-12-05T05:28:54.469Z,10.02
2022-12-05T05:31:21.768Z,9.65
2022-12-05T05:33:50.544Z,8.98
2022-12-05T05:36:18.014Z,10.05
2022-12-05T05:38:47.653Z,11.25
2022-12-05T05:41:14.543Z,10.27
2022-12-05T05:43:42.422Z,10.70
2022-12-05T05:46:10.320Z,9.88
2022-12-05T05:48:38.004Z,8.95
2022-12-05T05:51:06.955Z,11.90
2022-12-05T05:53:34.091Z,10.38
2022-12-05T05:56:06.306Z,10.38
2022-12-05T05:58:34.598Z,12.35
2022-12-05T06:01:19.363Z,9.63
2022-12-05T06:03:47.290Z,9.70
2022-12-05T06:06:15.031Z,9.75
2022-12-05T06:08:44.394Z,10.43
2022-12-05T06:11:37.947Z,9.15
2022-12-05T06:14:05.247Z,9.30
2022-12-05T06:16:32.799Z,9.20
2022-12-05T06:18:59.967Z,9.27
2022-12-05T06:21:27.584Z,9.68
2022-12-05T06:23:55.586Z,8.55
2022-12-05T06:26:23.517Z,8.60
2022-12-05T06:28:50.818Z,9.43
2022-12-05T06:31:22.493Z,8.23
2022-12-05T06:33:50.251Z,10.63
2022-12-05T06:36:20.649Z,8.05
2022-12-05T06:38:47.743Z,8.93
2022-12-05T06:41:17.613Z,8.88
2022-12-05T06:43:44.763Z,8.82
2022-12-05T06:46:14.432Z,9.20
2022-12-05T06:48:41.758Z,10.52
2022-12-05T06:51:14.055Z,6.20
2022-12-05T06:53:41.956Z,9.45
2022-12-05T06:56:12.673Z,13.93
2022-12-05T06:58:41.063Z,10.20
2022-12-05T07:01:34.643Z,8.77
2022-12-05T07:04:02.273Z,7.57
2022-12-05T07:06:29.773Z,8.55
2022-12-05T07:08:57.138Z,9.70
2022-12-05T07:11:25.021Z,7.93
2022-12-05T07:13:52.169Z,9.23
2022-12-05T07:16:19.832Z,7.68
2022-12-05T07:18:47.119Z,9.63
2022-12-05T07:21:15.990Z,8.40
2022-12-05T07:23:45.138Z,9.73
2022-12-05T07:26:15.521Z,8.43
2022-12-05T07:28:42.862Z,8.27
2022-12-05T07:31:13.882Z,7.72
2022-12-05T07:33:41.580Z,6.78
2022-12-05T07:36:14.840Z,7.35
2022-12-05T07:38:43.667Z,7.22
2022-12-05T07:41:19.885Z,7.03
2022-12-05T07:43:46.877Z,7.45
2022-12-05T07:46:14.066Z,8.30
2022-12-05T07:48:41.340Z,7.47
2022-12-05T07:51:11.413Z,9.15
2022-12-05T07:53:39.655Z,8.60
2022-12-05T07:56:08.571Z,7.97
2022-12-05T07:58:36.464Z,7.65
2022-12-05T08:01:12.042Z,9.50
2022-12-05T08:03:40.076Z,8.43
2022-12-05T08:06:10.054Z,9.75
2022-12-05T08:08:38.320Z,7.90
2022-12-05T08:11:13.711Z,7.80
2022-12-05T08:13:41.777Z,9.13
2022-12-05T08:16:19.553Z,8.20
2022-12-05T08:18:48.639Z,7.70
2022-12-05T08:21:19.417Z,8.98
2022-12-05T08:23:47.403Z,8.38
2022-12-05T08:26:18.834Z,7.97
2022-12-05T08:28:45.982Z,7.75
2022-12-05T08:31:18.668Z,7.68
2022-12-05T08:33:46.578Z,11.00
2022-12-05T08:36:18.726Z,8.52
2022-12-05T08:38:46.528Z,8.95
2022-12-05T08:41:18.035Z,7.93
2022-12-05T08:43:45.463Z,8.18
2022-12-05T08:46:13.261Z,7.05
2022-12-05T08:48:40.453Z,8.48
2022-12-05T08:51:09.859Z,8.27
2022-12-05T08:53:43.901Z,9.23
2022-12-05T08:56:12.733Z,7.53
2022-12-05T08:58:40.092Z,8.13
2022-12-05T09:01:10.660Z,6.97
2022-12-05T09:03:38.383Z,8.68
2022-12-05T09:06:10.088Z,6.60
2022-12-05T09:08:37.687Z,6.80
2022-12-05T09:11:09.324Z,7.22
2022-12-05T09:13:36.822Z,7.82
2022-12-05T09:16:12.784Z,6.82
2022-12-05T09:18:40.161Z,9.50
2022-12-05T09:21:12.865Z,7.40
2022-12-05T09:23:40.228Z,7.30
2022-12-05T09:26:11.825Z,7.20
2022-12-05T09:28:39.670Z,6.78
2022-12-05T09:31:12.424Z,7.50
2022-12-05T09:33:39.507Z,7.45
2022-12-05T09:36:11.395Z,7.88
2022-12-05T09:38:38.514Z,7.80
2022-12-05T09:41:15.853Z,6.78
2022-12-05T09:43:47.366Z,5.93
2022-12-05T09:46:47.888Z,11.13
2022-12-05T09:49:14.903Z,9.55
2022-12-05T09:51:49.671Z,6.97
2022-12-05T09:54:22.673Z,6.93
2022-12-05T09:56:51.764Z,7.07
2022-12-05T09:59:20.613Z,7.65
2022-12-05T10:02:14.730Z,6.28
2022-12-05T10:05:00.844Z,7.30
2022-12-05T10:08:00.253Z,7.53
2022-12-05T10:10:43.698Z,7.78
2022-12-05T10:13:28.968Z,7.70
2022-12-05T10:16:00.920Z,7.03
2022-12-05T10:18:42.153Z,7.18
2022-12-05T10:21:09.046Z,8.45
2022-12-05T10:23:57.693Z,11.13
2022-12-05T10:26:49.156Z,8.65
2022-12-05T10:29:42.982Z,7.57
2022-12-05T10:32:18.572Z,6.78
2022-12-05T10:34:46.262Z,6.28
2022-12-05T10:37:19.645Z,6.70
2022-12-05T10:39:49.927Z,6.40
2022-12-05T10:42:29.038Z,6.55
2022-12-05T10:45:00.088Z,7.07
2022-12-05T10:47:27.451Z,6.72
2022-12-05T10:49:58.121Z,5.53
2022-12-05T10:52:25.663Z,5.30
2022-12-05T10:55:00.868Z,4.97
2022-12-05T10:57:32.422Z,6.65
2022-12-05T11:00:13.474Z,4.90
2022-12-05T11:02:43.903Z,5.43
2022-12-05T11:05:11.787Z,6.15
2022-12-05T11:07:45.036Z,5.25
2022-12-05T11:10:33.657Z,5.13
2022-12-05T11:13:02.228Z,5.72
2022-12-05T11:15:31.671Z,5.57
2022-12-05T11:18:19.071Z,6.90
2022-12-05T11:20:46.053Z,5.35
2022-12-05T11:23:33.299Z,5.78
2022-12-05T11:26:00.483Z,4.72
2022-12-05T11:28:33.023Z,5.78
2022-12-05T11:31:02.904Z,5.63
2022-12-05T11:33:32.869Z,4.63
2022-12-05T11:36:12.585Z,5.50
2022-12-05T11:38:40.982Z,4.65
2022-12-05T11:41:20.705Z,6.55
2022-12-05T11:43:53.604Z,7.20
2022-12-05T11:46:27.185Z,6.72
2022-12-05T11:49:06.045Z,4.40
2022-12-05T11:52:06.741Z,4.15
2022-12-05T11:55:12.801Z,4.13
2022-12-05T11:58:30.365Z,5.30
2022-12-05T12:01:34.457Z,4.88
2022-12-05T12:04:01.359Z,4.32
2022-12-05T12:06:46.829Z,4.07
2022-12-05T12:09:41.396Z,4.60
2022-12-05T12:12:27.345Z,6.05
2022-12-05T12:14:54.313Z,3.65
2022-12-05T12:17:59.127Z,3.97
2022-12-05T12:20:42.026Z,3.95
2022-12-05T12:23:20.942Z,4.32
2022-12-05T12:26:25.081Z,6.65
2022-12-05T12:29:03.375Z,6.97
2022-12-05T12:31:40.440Z,5.03
2022-12-05T12:34:37.777Z,4.75
2022-12-05T12:37:22.491Z,5.55
2022-12-05T12:40:12.410Z,4.07
2022-12-05T12:42:42.219Z,3.28
2022-12-05T12:45:38.823Z,3.95
2022-12-05T12:48:23.634Z,4.80
2022-12-05T12:50:54.361Z,4.70
2022-12-05T12:54:01.201Z,3.90
2022-12-05T12:56:38.944Z,3.80
2022-12-05T12:59:32.187Z,4.28
2022-12-05T13:02:12.012Z,4.20
2022-12-05T13:04:51.172Z,4.60
2022-12-05T13:07:27.255Z,4.85
2022-12-05T13:09:59.806Z,3.72
2022-12-05T13:12:33.893Z,3.67
2022-12-05T13:15:06.547Z,5.47
2022-12-05T13:17:34.084Z,3.15
2022-12-05T13:20:01.350Z,3.10
2022-12-05T13:22:29.146Z,3.80
2022-12-05T13:24:56.735Z,3.50
2022-12-05T13:27:29.727Z,2.92
2022-12-05T13:30:01.285Z,4.22
2022-12-05T13:35:49.421Z,4.13
2022-12-05T13:38:46.809Z,4.55
2022-12-05T13:41:33.209Z,3.28
2022-12-05T13:44:06.769Z,4.25
2022-12-05T13:46:38.833Z,4.22
2022-12-05T13:49:21.988Z,3.45
2022-12-05T13:51:49.305Z,4.18
2022-12-05T13:54:23.908Z,2.83
2022-12-05T13:56:58.714Z,3.10
2022-12-05T14:00:01.793Z,3.90
2022-12-05T14:02:45.519Z,3.85
2022-12-05T14:05:21.584Z,3.90
2022-12-05T14:07:54.019Z,3.47
2022-12-05T14:10:43.831Z,3.13
2022-12-05T14:13:16.743Z,3.40
2022-12-05T14:15:46.002Z,4.68
2022-12-05T14:18:41.189Z,3.03
2022-12-05T14:21:24.780Z,4.47
2022-12-05T14:24:06.701Z,3.20
2022-12-05T14:29:48.889Z,3.00
2022-12-05T14:32:25.097Z,3.55
2022-12-05T14:35:01.292Z,3.40
2022-12-05T14:37:51.027Z,4.43
2022-12-05T14:40:20.823Z,4.10
2022-12-05T14:42:54.586Z,3.00
2022-12-05T14:45:40.957Z,2.90
2022-12-05T14:48:13.909Z,2.65
2022-12-05T14:50:45.176Z,2.95
2022-12-05T14:53:15.115Z,2.00
2022-12-05T14:55:46.015Z,2.90
2022-12-05T14:58:25.135Z,2.13
2022-12-05T15:01:01.017Z,4.25
2022-12-05T15:03:38.402Z,2.10
2022-12-05T15:06:10.433Z,4.45
2022-12-05T15:08:46.636Z,2.60
2022-12-05T15:11:30.594Z,1.80
2022-12-05T15:14:09.483Z,2.63
2022-12-05T15:16:40.325Z,1.75
2022-12-05T15:19:16.380Z,2.22
2022-12-05T15:21:48.772Z,1.90
2022-12-05T15:24:18.595Z,1.70
2022-12-05T15:26:57.060Z,1.35
2022-12-05T15:29:28.194Z,3.97
2022-12-05T15:32:02.311Z,2.47
2022-12-05T15:34:42.512Z,2.55
2022-12-05T15:37:20.541Z,1.67
2022-12-05T15:39:57.008Z,2.13
2022-12-05T15:42:36.847Z,1.48
2022-12-05T15:45:15.510Z,2.00
2022-12-05T15:47:45.504Z,1.13
2022-12-05T15:50:19.944Z,0.93
2022-12-05T15:53:03.630Z,1.02
2022-12-05T15:55:38.839Z,1.67
2022-12-05T15:58:17.303Z,1.52
2022-12-05T16:00:48.810Z,1.50
2022-12-05T16:03:31.030Z,1.58
2022-12-05T16:06:06.114Z,1.38
2022-12-05T16:08:40.794Z,1.45
2022-12-05T16:11:09.973Z,1.60
2022-12-05T16:13:42.730Z,1.10
2022-12-05T16:16:20.129Z,1.23
2022-12-05T16:18:54.931Z,1.10
2022-12-05T16:21:30.936Z,1.20
2022-12-05T16:24:05.769Z,1.58
2022-12-05T16:26:37.684Z,0.80
2022-12-05T16:29:05.020Z,1.58
2022-12-05T16:31:34.067Z,2.70
2022-12-05T16:34:15.159Z,2.40
2022-12-05T16:36:50.642Z,3.17
2022-12-05T16:39:19.852Z,2.80
2022-12-05T16:41:47.558Z,2.72
2022-12-05T16:44:48.332Z,2.80
2022-12-05T16:47:27.267Z,2.58
2022-12-05T16:49:54.401Z,2.97
2022-12-05T16:52:21.980Z,2.58
2022-12-05T16:54:50.400Z,2.30
2022-12-05T16:57:17.970Z,1.98
2022-12-05T16:59:48.341Z,2.67
2022-12-05T17:02:19.643Z,1.88
2022-12-05T17:04:47.166Z,1.70
2022-12-05T17:07:14.111Z,1.33
2022-12-05T17:09:41.450Z,1.50
2022-12-05T17:12:17.805Z,1.52
2022-12-05T17:14:47.114Z,1.52
2022-12-05T17:17:16.021Z,1.48
2022-12-05T17:19:43.021Z,1.85
2022-12-05T17:22:12.429Z,4.15
2022-12-05T17:24:39.248Z,2.83
2022-12-05T17:27:09.234Z,1.70
2022-12-05T17:29:36.163Z,1.90
2022-12-05T17:32:03.983Z,1.45
2022-12-05T17:34:30.986Z,2.30
2022-12-05T17:36:57.851Z,2.00
2022-12-05T17:39:28.388Z,2.63
2022-12-05T17:41:56.164Z,1.67
2022-12-05T17:44:23.289Z,1.83
2022-12-05T17:46:50.356Z,1.67
2022-12-05T17:49:18.072Z,1.40
2022-12-05T17:52:13.425Z,2.03
2022-12-05T17:54:32.436Z,1.45
2022-12-05T17:56:59.306Z,1.73
2022-12-05T17:59:26.280Z,1.83
2022-12-05T18:01:53.691Z,2.35
2022-12-05T18:04:23.319Z,2.40
2022-12-05T18:06:50.925Z,1.92
2022-12-05T18:09:18.029Z,1.42
2022-12-05T18:11:44.917Z,2.13
2022-12-05T18:14:12.059Z,2.03
2022-12-05T18:16:39.213Z,1.88
2022-12-05T18:19:08.253Z,1.80
2022-12-05T18:21:35.694Z,2.17
2022-12-05T18:24:02.933Z,2.03
2022-12-05T18:26:31.038Z,4.30
2022-12-05T18:28:59.407Z,2.03
2022-12-05T18:31:26.434Z,1.63
2022-12-05T18:33:53.771Z,1.45
2022-12-05T18:36:21.923Z,2.53
2022-12-05T18:38:54.616Z,2.33
2022-12-05T18:41:27.169Z,2.00
2022-12-05T18:43:54.905Z,2.53
2022-12-05T18:46:21.931Z,2.70
2022-12-05T18:48:49.099Z,3.05
2022-12-05T18:51:19.611Z,2.17
2022-12-05T18:53:52.503Z,1.95
2022-12-05T18:56:26.681Z,2.40
2022-12-05T18:58:59.351Z,2.17
2022-12-05T19:01:28.441Z,2.10
2022-12-05T19:03:57.991Z,1.90
2022-12-05T19:06:29.958Z,2.72
2022-12-05T19:08:59.846Z,2.67
2022-12-05T19:11:27.719Z,2.88
2022-12-05T19:13:59.050Z,2.55
2022-12-05T19:16:27.255Z,2.75
2022-12-05T19:18:56.263Z,3.67
2022-12-05T19:21:24.758Z,6.53
2022-12-05T19:23:51.939Z,3.38
2022-12-05T19:26:18.946Z,3.25
2022-12-05T19:28:46.159Z,4.15
2022-12-05T19:31:16.184Z,3.65
2022-12-05T19:33:48.726Z,2.53
2022-12-05T19:36:20.416Z,2.58
2022-12-05T19:38:49.939Z,2.42
2022-12-05T19:41:20.005Z,2.78
2022-12-05T19:43:49.766Z,2.70
2022-12-05T19:46:21.081Z,2.15
2022-12-05T19:48:48.948Z,3.00
2022-12-05T19:51:15.996Z,2.45
2022-12-05T19:53:44.382Z,2.20
2022-12-05T19:56:19.166Z,2.10
2022-12-05T19:58:47.178Z,2.30
2022-12-05T20:01:23.493Z,2.55
2022-12-05T20:03:52.821Z,2.40
2022-12-05T20:06:22.665Z,2.00
2022-12-05T20:08:53.460Z,2.20
2022-12-05T20:11:31.357Z,2.00
2022-12-05T20:14:00.706Z,2.17
2022-12-05T20:16:29.482Z,1.77
2022-12-05T20:18:59.427Z,1.48
2022-12-05T20:21:30.918Z,4.00
2022-12-05T20:24:00.878Z,5.75
2022-12-05T20:26:35.061Z,4.32
2022-12-05T20:29:04.361Z,2.80
2022-12-05T20:31:37.135Z,3.58
2022-12-05T20:34:05.588Z,2.20
2022-12-05T20:36:35.334Z,2.03
2022-12-05T20:39:12.865Z,1.55
2022-12-05T20:41:40.144Z,1.25
2022-12-05T20:44:08.826Z,2.58
2022-12-05T20:46:43.399Z,1.90
2022-12-05T20:49:13.246Z,1.70
2022-12-05T20:51:45.962Z,1.67
2022-12-05T20:54:14.814Z,2.15
2022-12-05T20:56:42.745Z,2.10
2022-12-05T20:59:11.801Z,2.20
2022-12-05T21:01:39.356Z,1.92
2022-12-05T21:04:07.815Z,1.80
2022-12-05T21:06:40.464Z,1.88
2022-12-05T21:09:16.190Z,1.92
2022-12-05T21:11:43.555Z,2.38
2022-12-05T21:14:11.880Z,1.42
2022-12-05T21:16:38.842Z,1.92
2022-12-05T21:19:05.773Z,1.65
2022-12-05T21:21:34.426Z,1.40
2022-12-05T21:24:09.099Z,2.00
2022-12-05T21:26:36.632Z,1.45
2022-12-05T21:29:04.921Z,2.58
2022-12-05T21:31:35.320Z,1.92
2022-12-05T21:34:06.668Z,1.55
2022-12-05T21:36:35.832Z,1.70
2022-12-05T21:39:03.558Z,1.08
2022-12-05T21:41:30.697Z,2.03
2022-12-05T21:43:57.624Z,1.75
2022-12-05T21:46:27.241Z,1.65
2022-12-05T21:48:55.724Z,2.13
2022-12-05T21:51:23.313Z,1.80
2022-12-05T21:53:50.760Z,1.08
2022-12-05T21:56:22.629Z,1.40
2022-12-05T21:58:49.950Z,1.92
2022-12-05T22:01:19.850Z,1.98
2022-12-05T22:03:50.430Z,1.30
2022-12-05T22:06:18.913Z,1.90
2022-12-05T22:08:45.863Z,1.65
2022-12-05T22:11:15.363Z,1.23
2022-12-05T22:13:43.538Z,1.77
2022-12-05T22:16:11.556Z,1.30
2022-12-05T22:18:40.318Z,1.33
2022-12-05T22:21:12.962Z,2.65
2022-12-05T22:23:40.328Z,1.15
2022-12-05T22:26:09.836Z,1.15
2022-12-05T22:28:38.665Z,1.80
2022-12-05T22:31:08.874Z,0.88
2022-12-05T22:33:37.412Z,1.95
2022-12-05T22:36:07.399Z,1.30
2022-12-05T22:38:40.166Z,1.45
2022-12-05T22:41:17.209Z,1.23
2022-12-05T22:43:46.324Z,1.10
2022-12-05T22:46:19.034Z,1.05
2022-12-05T22:48:47.812Z,2.35
2022-12-05T22:51:20.125Z,1.20
2022-12-05T22:53:47.556Z,0.80
2022-12-05T22:56:16.476Z,1.27
2022-12-05T22:58:45.278Z,1.00
2022-12-05T23:01:18.425Z,1.17
2022-12-05T23:03:52.318Z,1.77
2022-12-05T23:06:19.758Z,1.10
2022-12-05T23:08:48.702Z,1.10
2022-12-05T23:11:17.678Z,0.73
2022-12-05T23:13:48.586Z,0.68
2022-12-05T23:16:25.320Z,1.13
2022-12-05T23:18:57.655Z,1.10
2022-12-05T23:21:31.151Z,1.10
2022-12-05T23:24:00.670Z,2.03
2022-12-05T23:26:30.616Z,1.25
2022-12-05T23:28:57.754Z,1.23
2022-12-05T23:31:25.141Z,1.13
2022-12-05T23:33:52.327Z,1.25
2022-12-05T23:36:20.755Z,1.88
2022-12-05T23:38:48.467Z,1.60
2022-12-05T23:41:20.911Z,1.38
2022-12-05T23:43:49.497Z,1.20
2022-12-05T23:46:18.344Z,1.58
2022-12-05T23:48:45.844Z,1.70
2022-12-05T23:51:18.868Z,1.95
2022-12-05T23:53:47.259Z,1.65
2022-12-05T23:56:23.521Z,1.70
2022-12-05T23:58:50.946Z,2.03
